Time;durP1;ratioP1;P1;durP2;ratioP2;P2;SDS_P1;SDS_P2;PMS_P1;PMS_P2;Temp;Humidity;BMP_temperature;BMP_pressure;BME280_temperature;BME280_humidity;BME280_pressure;Samples;Min_cycle;Max_cycle;Signal;HPM_P1;HPM_P2
2022/08/03 00:05:13;;;;;;;2.80;2.30;;;;;;;22.33;41.73;100484.50;10398706;28;20233;-80
2022/08/03 00:10:36;;;;;;;5.20;2.15;;;;;;;22.06;42.41;100484.13;10396098;28;20201;-81
2022/08/03 00:15:59;;;;;;;5.43;1.75;;;;;;;21.85;42.70;100484.94;10387992;28;20248;-81
2022/08/03 00:21:21;;;;;;;3.47;1.75;;;;;;;22.10;42.25;100475.50;10408649;28;20208;-81
2022/08/03 00:26:43;;;;;;;4.90;2.10;;;;;;;22.02;42.53;100471.00;10384004;28;20262;-81
2022/08/03 00:32:05;;;;;;;4.53;2.10;;;;;;;21.44;43.45;100463.56;10398309;28;20196;-81
2022/08/03 00:37:27;;;;;;;4.93;2.50;;;;;;;21.46;43.70;100458.25;10395380;28;20229;-82
2022/08/03 00:42:49;;;;;;;3.10;2.42;;;;;;;21.40;44.27;100469.31;10392666;28;20601;-81
2022/08/03 00:48:12;;;;;;;3.95;2.13;;;;;;;21.89;43.11;100455.38;10395074;28;20258;-81
2022/08/03 00:53:35;;;;;;;2.17;2.00;;;;;;;21.73;43.55;100456.63;10410146;28;20262;-81
2022/08/03 00:58:57;;;;;;;4.05;1.85;;;;;;;21.93;43.18;100453.34;10405917;28;20228;-81
2022/08/03 01:04:19;;;;;;;3.45;2.17;;;;;;;22.02;42.40;100451.72;10401521;28;20201;-82
2022/08/03 01:09:58;;;;;;;2.05;1.80;;;;;;;21.66;43.40;100456.63;10419805;28;20192;-81
2022/08/03 01:15:38;;;;;;;2.70;1.48;;;;;;;21.74;43.07;100446.78;10405850;28;20197;-84
2022/08/03 01:21:04;;;;;;;3.70;2.08;;;;;;;21.46;43.92;100446.78;10381553;28;20208;-81
2022/08/03 01:26:49;;;;;;;4.65;2.10;;;;;;;21.60;43.88;100451.72;10397147;28;20212;-82
2022/08/03 01:32:15;;;;;;;3.25;2.13;;;;;;;21.50;44.07;100447.59;10377432;28;20209;-81
2022/08/03 01:37:51;;;;;;;3.25;2.30;;;;;;;21.58;43.69;100437.78;10407888;28;20225;-82
2022/08/03 01:43:15;;;;;;;3.38;1.88;;;;;;;21.66;43.45;100435.72;10408731;28;20205;-81
2022/08/03 01:48:41;;;;;;;4.15;2.40;;;;;;;21.77;43.63;100433.66;10387169;28;20189;-82
2022/08/03 01:54:04;;;;;;;4.65;2.42;;;;;;;21.63;43.79;100431.63;10390386;28;20265;-82
2022/08/03 01:59:28;;;;;;;3.55;2.38;;;;;;;21.30;45.42;100427.06;10389715;28;20239;-82
2022/08/03 02:04:52;;;;;;;4.05;2.08;;;;;;;21.37;45.40;100431.97;10392601;28;20867;-82
2022/08/03 02:10:15;;;;;;;3.28;2.10;;;;;;;21.25;45.40;100430.31;10407779;28;20216;-82
2022/08/03 02:15:38;;;;;;;2.22;1.98;;;;;;;21.57;44.83;100429.59;10401617;28;20197;-82
2022/08/03 02:21:01;;;;;;;2.25;2.03;;;;;;;21.39;45.19;100436.13;10407975;28;20201;-82
2022/08/03 02:26:28;;;;;;;3.25;2.45;;;;;;;21.22;45.72;100425.41;10407163;28;20687;-80
2022/08/03 02:31:51;;;;;;;2.25;1.95;;;;;;;21.40;45.08;100428.34;10405543;28;20251;-78
2022/08/03 02:37:13;;;;;;;4.13;2.20;;;;;;;21.34;45.23;100430.75;10401411;28;20294;-79
2022/08/03 02:42:37;;;;;;;5.05;1.90;;;;;;;21.44;44.85;100429.16;10401608;28;20242;-78
2022/08/03 02:48:02;;;;;;;3.22;2.30;;;;;;;21.22;45.22;100433.19;10391430;28;20212;-78
2022/08/03 02:53:25;;;;;;;5.20;1.92;;;;;;;21.32;45.47;100432.41;10412288;28;20196;-80
2022/08/03 02:58:48;;;;;;;2.50;1.98;;;;;;;21.28;45.60;100425.84;10399929;28;20700;-81
2022/08/03 03:04:11;;;;;;;4.97;2.28;;;;;;;21.27;45.53;100427.06;10396573;28;20254;-78
2022/08/03 03:09:34;;;;;;;3.53;2.15;;;;;;;21.25;44.86;100424.59;10417878;28;20197;-79
2022/08/03 03:14:56;;;;;;;4.18;1.75;;;;;;;21.25;44.54;100429.50;10396677;28;20192;-78
2022/08/03 03:20:20;;;;;;;2.55;1.90;;;;;;;20.65;46.06;100427.25;10405766;28;20225;-78
2022/08/03 03:25:42;;;;;;;3.88;2.20;;;;;;;20.74;45.77;100427.69;10413493;28;20243;-81
2022/08/03 03:31:05;;;;;;;7.15;2.20;;;;;;;20.97;45.54;100431.06;10397213;28;20197;-80
2022/08/03 03:36:27;;;;;;;5.30;2.25;;;;;;;21.03;45.97;100429.47;10391560;28;20228;-80
2022/08/03 03:41:50;;;;;;;3.40;2.20;;;;;;;21.03;45.50;100429.47;10397023;28;20271;-82
2022/08/03 03:47:12;;;;;;;3.85;2.47;;;;;;;20.65;47.26;100433.81;10395378;28;20185;-80
2022/08/03 03:52:35;;;;;;;4.45;2.00;;;;;;;20.97;45.77;100433.94;10398486;28;20597;-83
2022/08/03 03:57:57;;;;;;;3.67;1.67;;;;;;;20.93;46.36;100423.72;10389956;28;20240;-81
2022/08/03 04:03:20;;;;;;;4.13;2.35;;;;;;;20.64;47.23;100429.31;10392284;28;20201;-81
2022/08/03 04:14:26;;;;;;;3.97;2.35;;;;;;;20.85;46.92;100425.72;10400037;28;20656;-79
2022/08/03 04:19:50;;;;;;;6.22;2.50;;;;;;;20.91;46.84;100424.13;10406053;28;20612;-78
2022/08/03 04:25:16;;;;;;;3.97;2.40;;;;;;;20.93;46.64;100430.25;10403058;28;20200;-79
2022/08/03 04:30:46;;;;;;;3.00;2.60;;;;;;;20.83;47.38;100424.47;10398738;28;20201;-76
2022/08/03 04:36:11;;;;;;;5.43;2.70;;;;;;;20.77;47.21;100430.59;10386161;28;20229;-76
2022/08/03 04:41:35;;;;;;;4.60;2.45;;;;;;;20.75;46.56;100435.06;10407974;28;20258;-76
2022/08/03 04:46:58;;;;;;;7.75;2.67;;;;;;;20.68;46.66;100432.19;10364214;28;20212;-76
2022/08/03 04:52:20;;;;;;;6.68;2.70;;;;;;;20.58;46.89;100436.63;10379496;28;20193;-76
2022/08/03 04:57:42;;;;;;;4.88;2.15;;;;;;;21.32;46.25;100441.00;10394864;28;20212;-76
2022/08/03 05:03:04;;;;;;;4.00;2.45;;;;;;;21.36;46.08;100447.53;10394328;28;20205;-76
2022/08/03 05:08:26;;;;;;;6.95;2.25;;;;;;;21.38;45.72;100445.13;10391035;28;20278;-76
2022/08/03 05:13:49;;;;;;;5.97;2.55;;;;;;;21.64;45.45;100436.13;10392283;28;20296;-78
2022/08/03 05:19:11;;;;;;;8.60;2.30;;;;;;;21.38;45.74;100445.13;10411125;28;20227;-81
2022/08/03 05:24:33;;;;;;;7.13;2.40;;;;;;;21.59;45.30;100433.69;10403282;28;20334;-81
2022/08/03 05:29:56;;;;;;;8.57;2.47;;;;;;;21.81;44.84;100438.19;10397316;28;20251;-82
2022/08/03 05:35:18;;;;;;;10.30;2.30;;;;;;;21.90;44.73;100431.19;10390051;28;20235;-81
2022/08/03 05:40:40;;;;;;;10.82;2.60;;;;;;;21.73;46.24;100442.28;10385491;28;20285;-81
2022/08/03 05:46:02;;;;;;;9.90;2.67;;;;;;;21.98;45.63;100441.50;10407387;28;20593;-80
2022/08/03 05:51:24;;;;;;;17.73;3.25;;;;;;;21.95;46.38;100448.03;10394026;28;20201;-81
2022/08/03 05:56:46;;;;;;;10.82;3.00;;;;;;;22.04;45.80;100459.94;10401979;28;20505;-81
2022/08/03 06:02:08;;;;;;;10.13;3.97;;;;;;;22.32;45.62;100456.19;10398692;28;20560;-81
2022/08/03 06:07:30;;;;;;;9.98;3.33;;;;;;;22.17;45.53;100458.25;10412157;28;20274;-81
2022/08/03 06:12:52;;;;;;;6.78;3.22;;;;;;;22.38;45.42;100458.22;10401907;28;20208;-81
2022/08/03 06:18:15;;;;;;;8.93;2.92;;;;;;;22.58;44.98;100461.47;10400331;28;20308;-81
2022/08/03 06:23:37;;;;;;;6.43;2.45;;;;;;;22.44;45.74;100458.63;10393734;28;20602;-81
2022/08/03 06:28:59;;;;;;;6.95;1.88;;;;;;;22.12;44.28;100450.09;10412465;28;20231;-79
2022/08/03 06:34:21;;;;;;;7.10;1.30;;;;;;;22.82;43.15;100451.94;10412626;28;20204;-78
2022/08/03 06:39:43;;;;;;;5.20;1.50;;;;;;;22.65;42.03;100454.88;10408421;28;20228;-79
2022/08/03 06:45:07;;;;;;;5.10;1.52;;;;;;;23.14;40.52;100457.56;10397427;28;20197;-81
2022/08/03 06:50:30;;;;;;;4.63;1.52;;;;;;;23.13;40.75;100452.25;10397559;28;20216;-82
2022/08/03 06:55:52;;;;;;;5.25;1.40;;;;;;;23.12;40.28;100457.16;10409387;28;20574;-81
2022/08/03 07:01:14;;;;;;;1.50;1.27;;;;;;;23.63;40.24;100463.41;10399432;28;20592;-82
2022/08/03 07:06:37;;;;;;;1.77;1.40;;;;;;;23.72;39.66;100464.59;10408661;28;20243;-81
2022/08/03 07:12:01;;;;;;;3.20;1.20;;;;;;;23.77;40.16;100457.56;10396819;28;20220;-81
2022/08/03 07:17:23;;;;;;;4.05;1.42;;;;;;;24.20;39.24;100463.78;10407283;28;20252;-83
2022/08/03 07:22:45;;;;;;;6.05;1.50;;;;;;;24.08;38.82;100462.22;10397930;28;20251;-79
2022/08/03 07:28:07;;;;;;;2.42;1.33;;;;;;;24.49;38.41;100475.81;10397642;28;20201;-81
2022/08/03 07:33:29;;;;;;;2.47;1.25;;;;;;;24.76;38.96;100458.66;10397689;28;20205;-82
2022/08/03 07:38:51;;;;;;;4.38;1.30;;;;;;;24.01;38.49;100470.09;10394328;28;20247;-79
2022/08/03 07:44:14;;;;;;;5.60;1.45;;;;;;;24.44;38.06;100462.72;10397492;28;20204;-79
2022/08/03 07:49:40;;;;;;;6.50;1.90;;;;;;;24.47;37.77;100464.72;10394480;28;20236;-78
2022/08/03 07:55:05;;;;;;;4.20;1.75;;;;;;;24.72;37.01;100463.66;10395155;28;20220;-81
2022/08/03 08:00:27;;;;;;;4.90;1.88;;;;;;;24.87;37.18;100462.22;10391003;28;20278;-79
2022/08/03 08:05:49;;;;;;;3.28;1.23;;;;;;;25.85;35.08;100458.34;10407232;28;20638;-79
2022/08/03 08:11:12;;;;;;;4.07;1.65;;;;;;;25.90;35.68;100455.75;10382489;28;20259;-79
2022/08/03 08:16:34;;;;;;;5.65;1.50;;;;;;;25.10;35.93;100465.22;10395646;28;20232;-79
2022/08/03 08:21:56;;;;;;;5.57;1.42;;;;;;;25.58;35.71;100455.47;10387784;28;20580;-79
2022/08/03 08:27:18;;;;;;;4.65;1.30;;;;;;;26.59;34.86;100447.50;10388518;28;20257;-79
2022/08/03 08:32:40;;;;;;;3.50;1.20;;;;;;;26.48;34.83;100449.78;10380357;28;20782;-79
2022/08/03 08:38:02;;;;;;;2.03;1.20;;;;;;;26.17;34.93;100452.81;10391226;28;20260;-79
2022/08/03 08:43:24;;;;;;;7.00;1.48;;;;;;;26.30;33.95;100445.16;10393007;28;20243;-79
2022/08/03 08:48:48;;;;;;;5.47;1.58;;;;;;;26.66;33.50;100448.19;10411154;28;20585;-79
2022/08/03 08:54:11;;;;;;;4.10;1.60;;;;;;;26.70;32.80;100446.00;10407860;28;20245;-79
2022/08/03 08:59:33;;;;;;;3.70;1.55;;;;;;;26.44;33.85;100455.63;10409747;28;20299;-81
2022/08/03 09:04:57;;;;;;;4.38;1.40;;;;;;;26.89;32.72;100447.31;10389917;28;20220;-79
2022/08/03 09:10:20;;;;;;;1.42;1.30;;;;;;;26.03;33.21;100462.53;10386837;28;20547;-80
2022/08/03 09:15:43;;;;;;;5.25;1.75;;;;;;;27.24;32.02;100450.66;10392074;28;20278;-79
2022/08/03 09:21:35;;;;;;;4.10;1.60;;;;;;;27.19;31.52;100460.69;10394144;28;20240;-80
2022/08/03 09:26:57;;;;;;;4.78;1.60;;;;;;;27.01;32.66;100466.06;10394061;28;20208;-79
2022/08/03 09:32:23;;;;;;;4.47;1.42;;;;;;;27.86;31.10;100452.50;10388348;28;20259;-80
2022/08/03 09:37:47;;;;;;;1.98;1.40;;;;;;;26.77;32.30;100444.28;10385576;28;20217;-79
2022/08/03 09:43:09;;;;;;;2.72;1.55;;;;;;;27.13;31.40;100450.09;10373684;28;20196;-79
2022/08/03 09:48:33;;;;;;;3.80;2.00;;;;;;;27.43;31.03;100455.63;10398293;28;20602;-80
2022/08/03 09:53:58;;;;;;;3.25;1.50;;;;;;;28.29;29.68;100443.53;10386222;28;20243;-79
2022/08/03 09:59:28;;;;;;;3.95;1.25;;;;;;;27.69;30.67;100459.56;10380241;28;20256;-80
2022/08/03 10:04:51;;;;;;;2.30;1.52;;;;;;;27.29;30.26;100459.66;10396125;28;20221;-79
2022/08/03 10:10:14;;;;;;;5.07;1.30;;;;;;;27.67;31.12;100453.38;10404849;28;20247;-79
2022/08/03 10:15:38;;;;;;;5.60;1.10;;;;;;;27.68;30.17;100455.03;10408517;28;20200;-79
2022/08/03 10:21:07;;;;;;;3.05;1.10;;;;;;;26.71;31.52;100441.88;10412804;28;20216;-78
2022/08/03 10:26:33;;;;;;;1.75;1.20;;;;;;;28.61;29.59;100433.13;10379153;28;20358;-78
2022/08/03 10:31:57;;;;;;;5.65;1.23;;;;;;;28.13;29.54;100437.72;10416384;28;20193;-79
2022/08/03 10:37:21;;;;;;;4.80;1.30;;;;;;;28.14;28.44;100445.97;10411607;28;20695;-80
2022/08/03 10:42:43;;;;;;;4.07;1.40;;;;;;;28.19;28.46;100432.19;10401360;28;20252;-79
2022/08/03 10:48:06;;;;;;;4.07;1.33;;;;;;;28.23;27.73;100430.03;10404620;28;20193;-79
2022/08/03 10:53:37;;;;;;;4.35;1.23;;;;;;;29.36;27.61;100420.88;10400330;28;20196;-79
2022/08/03 10:58:59;;;;;;;4.72;1.25;;;;;;;29.24;27.45;100412.19;10389769;28;20244;-80
2022/08/03 11:04:26;;;;;;;1.88;0.90;;;;;;;28.88;27.65;100407.44;10410500;28;20229;-80
2022/08/03 11:09:53;;;;;;;5.22;1.85;;;;;;;29.39;27.31;100399.59;10399523;28;20486;-80
2022/08/03 11:15:31;;;;;;;2.67;1.23;;;;;;;29.08;27.36;100398.53;10403308;28;20200;-79
2022/08/03 11:20:58;;;;;;;4.00;1.35;;;;;;;29.78;26.19;100400.44;10400162;28;20604;-80
2022/08/03 11:26:21;;;;;;;3.97;1.20;;;;;;;29.66;27.45;100401.25;10409740;28;20282;-81
2022/08/03 11:31:45;;;;;;;2.65;1.48;;;;;;;29.41;27.02;100390.44;10411406;28;20610;-79
2022/08/03 11:37:22;;;;;;;5.85;1.40;;;;;;;29.15;27.04;100398.31;10389813;28;20692;-79
2022/08/03 11:42:44;;;;;;;4.50;1.40;;;;;;;29.63;26.77;100399.31;10410076;28;20771;-80
2022/08/03 11:48:16;;;;;;;5.15;1.27;;;;;;;29.40;26.85;100398.34;10403102;28;20888;-79
2022/08/03 11:53:38;;;;;;;3.53;1.60;;;;;;;29.12;27.60;100393.44;10411264;28;20246;-80
2022/08/03 11:59:00;;;;;;;6.53;1.73;;;;;;;30.61;26.63;100399.94;10397498;28;20270;-79
2022/08/03 12:04:23;;;;;;;6.47;1.63;;;;;;;29.84;26.82;100407.28;10402925;28;20217;-79
2022/08/03 12:10:11;;;;;;;4.57;1.38;;;;;;;30.79;26.11;100390.53;10394421;28;20409;-79
2022/08/03 12:15:33;;;;;;;8.27;1.73;;;;;;;30.98;26.24;100386.47;10429024;28;20192;-79
2022/08/03 12:21:09;;;;;;;2.95;1.20;;;;;;;30.79;25.42;100382.63;10400280;28;20244;-79
2022/08/03 12:26:49;;;;;;;4.47;1.00;;;;;;;30.68;25.54;100388.03;10395028;28;20664;-79
2022/08/03 12:32:14;;;;;;;6.55;1.10;;;;;;;30.95;26.01;100372.84;10390365;28;20205;-80
2022/08/03 12:37:36;;;;;;;7.43;1.10;;;;;;;30.95;26.00;100378.69;10416632;28;20221;-78
2022/08/03 12:42:58;;;;;;;3.13;1.00;;;;;;;31.37;24.67;100376.13;10409804;28;20298;-79
2022/08/03 12:48:20;;;;;;;1.95;0.90;;;;;;;31.33;25.29;100381.31;10418321;28;20669;-79
2022/08/03 12:53:51;;;;;;;4.18;0.82;;;;;;;31.73;25.36;100377.56;10394151;28;21185;-79
2022/08/03 12:59:23;;;;;;;3.35;1.17;;;;;;;30.68;25.99;100373.50;10406506;28;20205;-79
2022/08/03 13:04:46;;;;;;;4.35;0.88;;;;;;;31.00;25.57;100368.53;10401364;28;20220;-79
2022/08/03 13:10:09;;;;;;;3.47;0.85;;;;;;;31.36;25.04;100374.50;10404206;28;20266;-78
2022/08/03 13:15:31;;;;;;;3.30;0.88;;;;;;;30.96;26.30;100363.63;10395442;28;20235;-78
2022/08/03 13:20:53;;;;;;;3.67;0.68;;;;;;;30.91;25.78;100360.53;10394527;28;20295;-80
2022/08/03 13:26:15;;;;;;;6.90;0.85;;;;;;;31.27;24.67;100360.72;10387921;28;20291;-80
2022/08/03 13:31:38;;;;;;;5.53;0.90;;;;;;;31.18;25.43;100362.78;10389565;28;20192;-79
2022/08/03 13:37:00;;;;;;;2.70;0.82;;;;;;;31.13;24.64;100364.22;10397628;28;20330;-80
2022/08/03 13:42:22;;;;;;;5.15;0.98;;;;;;;31.08;24.34;100349.50;10387022;28;20270;-79
2022/08/03 13:47:44;;;;;;;3.50;0.50;;;;;;;30.85;25.21;100357.41;10383805;28;20200;-80
2022/08/03 13:53:06;;;;;;;3.92;1.13;;;;;;;31.04;25.17;100351.72;10387289;28;20482;-81
2022/08/03 13:58:28;;;;;;;4.10;0.90;;;;;;;31.20;25.23;100336.94;10389208;28;20197;-79
2022/08/03 14:03:55;;;;;;;4.00;1.13;;;;;;;31.17;25.22;100344.50;10415933;28;20196;-79
2022/08/03 14:09:17;;;;;;;5.68;0.95;;;;;;;31.88;24.66;100332.75;10397343;28;20200;-80
2022/08/03 14:14:39;;;;;;;3.60;0.77;;;;;;;31.17;24.63;100332.06;10396077;28;20494;-79
2022/08/03 14:20:03;;;;;;;5.68;0.93;;;;;;;31.41;25.65;100330.19;10400699;28;20220;-80
2022/08/03 14:25:26;;;;;;;4.45;0.80;;;;;;;30.76;26.17;100325.38;10401431;28;20601;-81
2022/08/03 14:30:49;;;;;;;6.80;1.00;;;;;;;31.12;25.36;100323.94;10405287;28;20258;-80
2022/08/03 14:36:11;;;;;;;2.40;0.77;;;;;;;30.80;25.21;100326.03;10406753;28;20232;-80
2022/08/03 14:41:33;;;;;;;2.53;0.90;;;;;;;31.70;24.28;100323.97;10396436;28;20221;-80
2022/08/03 14:46:55;;;;;;;2.58;0.82;;;;;;;31.35;24.23;100314.63;10409080;28;20255;-80
2022/08/03 14:52:17;;;;;;;5.90;1.08;;;;;;;31.07;24.97;100301.28;10391269;28;20262;-80
2022/08/03 14:57:39;;;;;;;3.13;0.55;;;;;;;31.62;24.55;100294.31;10412929;28;20196;-79
2022/08/03 15:03:03;;;;;;;6.75;0.90;;;;;;;30.81;24.71;100298.56;10396144;28;20589;-79
2022/08/03 15:08:25;;;;;;;4.97;1.00;;;;;;;31.18;24.37;100296.63;10389743;28;20245;-80
2022/08/03 15:13:48;;;;;;;2.25;0.70;;;;;;;31.24;25.06;100290.97;10425636;28;20255;-79
2022/08/03 15:19:10;;;;;;;2.47;0.55;;;;;;;31.75;23.88;100281.69;10394966;28;20246;-80
2022/08/03 15:24:32;;;;;;;2.20;0.90;;;;;;;31.44;24.57;100288.47;10400618;28;20238;-79
2022/08/03 15:29:54;;;;;;;3.08;1.23;;;;;;;31.43;23.73;100281.03;10391023;28;20200;-80
2022/08/03 15:35:18;;;;;;;3.60;0.50;;;;;;;31.44;24.50;100276.03;10394903;28;20201;-79
2022/08/03 15:40:41;;;;;;;3.70;0.90;;;;;;;31.70;23.27;100270.72;10406544;28;20240;-79
2022/08/03 15:46:03;;;;;;;3.50;0.65;;;;;;;31.74;23.46;100271.34;10407545;28;20205;-80
2022/08/03 15:51:25;;;;;;;4.85;0.73;;;;;;;31.76;23.51;100268.75;10398905;28;20251;-80
2022/08/03 15:56:47;;;;;;;4.07;1.88;;;;;;;32.05;23.41;100269.09;10412202;28;20251;-80
2022/08/03 16:02:10;;;;;;;3.92;0.88;;;;;;;31.58;23.72;100270.38;10389587;28;20290;-79
2022/08/03 16:07:41;;;;;;;5.18;1.00;;;;;;;31.74;23.92;100266.31;10398442;28;20244;-79
2022/08/03 16:13:04;;;;;;;9.18;0.80;;;;;;;30.99;24.50;100262.91;10406713;28;20226;-80
2022/08/03 16:18:29;;;;;;;5.70;0.85;;;;;;;31.75;23.96;100267.13;10418208;28;20224;-79
2022/08/03 16:23:52;;;;;;;2.78;0.60;;;;;;;31.49;23.72;100255.78;10399203;28;20239;-79
2022/08/03 16:29:14;;;;;;;3.17;0.90;;;;;;;30.94;24.13;100257.72;10396179;28;20314;-79
2022/08/03 16:34:37;;;;;;;5.55;1.83;;;;;;;30.90;23.72;100266.59;10401780;28;20785;-80
2022/08/03 16:40:00;;;;;;;5.80;0.82;;;;;;;31.36;24.27;100260.91;10402240;28;20231;-80
2022/08/03 16:45:23;;;;;;;6.63;1.27;;;;;;;31.33;23.44;100258.97;10396788;28;20601;-79
2022/08/03 16:50:46;;;;;;;2.05;0.75;;;;;;;30.96;24.38;100252.19;10371008;28;20277;-79
2022/08/03 16:56:09;;;;;;;3.97;1.08;;;;;;;31.02;23.75;100256.13;10373651;28;20237;-79
2022/08/03 17:01:31;;;;;;;1.98;0.68;;;;;;;31.21;23.54;100249.06;10406203;28;20275;-79
2022/08/03 17:06:54;;;;;;;2.58;0.88;;;;;;;31.12;24.35;100249.03;10393916;28;20301;-79
2022/08/03 17:12:16;;;;;;;3.83;0.68;;;;;;;30.66;23.70;100253.88;10391920;28;20232;-79
2022/08/03 17:17:42;;;;;;;3.50;0.60;;;;;;;31.16;24.65;100255.53;10400517;28;20286;-79
2022/08/03 17:23:30;;;;;;;5.22;0.70;;;;;;;31.16;23.54;100251.81;10396749;28;20289;-80
2022/08/03 17:28:53;;;;;;;3.00;0.82;;;;;;;30.51;24.12;100255.69;10411481;28;20211;-80
2022/08/03 17:34:17;;;;;;;2.65;0.65;;;;;;;30.73;24.32;100253.56;10395757;28;20192;-80
2022/08/03 17:39:44;;;;;;;3.75;0.32;;;;;;;30.31;24.16;100258.16;10402184;28;20243;-81
2022/08/03 17:45:08;;;;;;;6.05;1.08;;;;;;;31.01;23.77;100251.59;10406269;28;20651;-80
2022/08/03 17:50:40;;;;;;;3.83;0.95;;;;;;;30.50;24.29;100259.88;10390468;28;20239;-81
2022/08/03 17:56:20;;;;;;;3.30;0.73;;;;;;;30.50;24.29;100265.72;10407557;28;20192;-82
2022/08/03 18:07:56;;;;;;;2.25;0.65;;;;;;;30.57;24.59;100259.63;10401227;28;20619;-81
2022/08/03 18:13:23;;;;;;;1.92;0.60;;;;;;;30.33;24.63;100267.22;10401086;28;20254;-81
2022/08/03 18:18:52;;;;;;;4.70;1.30;;;;;;;30.40;24.24;100266.94;10367691;28;20216;-81
2022/08/03 18:24:18;;;;;;;4.35;0.80;;;;;;;30.48;24.29;100262.47;10388735;28;20248;-81
2022/08/03 18:29:42;;;;;;;1.05;0.60;;;;;;;30.41;24.83;100256.94;10392958;28;20236;-80
2022/08/03 18:35:05;;;;;;;5.07;0.50;;;;;;;30.14;25.22;100257.56;10399530;28;20243;-79
2022/08/03 18:40:27;;;;;;;3.30;0.70;;;;;;;30.05;26.08;100264.06;10398157;28;20271;-82
2022/08/03 18:45:51;;;;;;;13.10;7.03;;;;;;;30.00;26.71;100266.81;10391538;28;20235;-81
2022/08/03 18:51:21;;;;;;;4.65;1.00;;;;;;;29.61;27.74;100265.31;10401146;28;20242;-81
2022/08/03 18:56:56;;;;;;;6.43;0.70;;;;;;;29.55;27.32;100274.59;10395846;28;20859;-82
2022/08/03 19:02:33;;;;;;;4.05;0.70;;;;;;;29.38;27.93;100264.44;10395445;28;20220;-82
2022/08/03 19:08:02;;;;;;;4.10;1.00;;;;;;;29.10;27.62;100274.09;10395550;28;20236;-80
2022/08/03 19:13:29;;;;;;;3.40;1.00;;;;;;;28.96;27.92;100274.56;10411173;28;20197;-80
2022/08/03 19:18:53;;;;;;;2.45;0.98;;;;;;;28.91;27.59;100275.13;10395589;28;20240;-79
2022/08/03 19:24:15;;;;;;;3.20;0.70;;;;;;;28.39;30.80;100282.16;10397960;28;20289;-81
2022/08/03 19:29:45;;;;;;;3.63;1.08;;;;;;;28.61;28.73;100280.22;10400536;28;20205;-82
2022/08/03 19:35:07;;;;;;;6.43;1.23;;;;;;;28.39;29.44;100287.94;10399419;28;20193;-81
2022/08/03 19:40:31;;;;;;;5.40;1.73;;;;;;;28.13;29.63;100292.81;10398020;28;20229;-80
2022/08/03 19:45:55;;;;;;;6.85;1.40;;;;;;;28.06;29.84;100295.94;10397729;28;20667;-82
2022/08/03 19:51:18;;;;;;;5.75;1.25;;;;;;;27.78;30.60;100307.06;10390181;28;20665;-83
2022/08/03 19:56:45;;;;;;;4.22;1.13;;;;;;;27.53;31.41;100303.19;10390265;28;20246;-80
2022/08/03 20:02:08;;;;;;;7.30;1.52;;;;;;;27.41;31.70;100304.72;10390440;28;20241;-83
2022/08/03 20:07:33;;;;;;;7.63;1.90;;;;;;;27.63;31.63;100299.19;10393691;28;20212;-82
2022/08/03 20:12:56;;;;;;;5.55;1.45;;;;;;;27.59;31.86;100298.44;10390589;28;20251;-83
2022/08/03 20:18:18;;;;;;;4.63;1.60;;;;;;;27.17;32.85;100303.25;10389355;28;20200;-83
2022/08/03 20:23:41;;;;;;;5.45;1.45;;;;;;;27.12;32.27;100307.50;10395719;28;20209;-82
2022/08/03 20:29:05;;;;;;;23.90;11.65;;;;;;;26.97;33.28;100300.44;10397325;28;20258;-83
2022/08/03 20:34:28;;;;;;;24.98;11.70;;;;;;;26.98;33.74;100305.78;10402588;28;20205;-82
2022/08/03 20:39:50;;;;;;;21.65;9.55;;;;;;;26.82;33.36;100308.63;10410049;28;20279;-83
2022/08/03 20:45:12;;;;;;;21.05;6.68;;;;;;;27.26;32.33;100309.25;10393622;28;20196;-83
2022/08/03 20:50:38;;;;;;;19.23;7.13;;;;;;;26.61;34.49;100312.81;10390535;28;20193;-82
2022/08/03 20:56:01;;;;;;;20.80;5.95;;;;;;;26.69;33.64;100316.34;10400030;28;20204;-82
2022/08/03 21:01:23;;;;;;;18.30;7.10;;;;;;;26.66;34.43;100312.28;10403220;28;20268;-83
2022/08/03 21:06:53;;;;;;;12.50;6.10;;;;;;;26.43;34.74;100315.25;10392815;28;20228;-82
2022/08/03 21:12:17;;;;;;;11.38;4.32;;;;;;;26.51;34.16;100308.09;10403790;28;20244;-83
2022/08/03 21:17:51;;;;;;;19.42;7.63;;;;;;;26.27;35.42;100301.59;10394936;28;20258;-78
2022/08/03 21:23:18;;;;;;;13.30;4.00;;;;;;;26.71;33.57;100296.47;10387954;28;20216;-80
2022/08/03 21:28:41;;;;;;;15.23;8.05;;;;;;;26.36;35.52;100296.03;10410419;28;20196;-82
2022/08/03 21:34:04;;;;;;;12.68;5.72;;;;;;;26.14;35.38;100294.81;10414209;28;20231;-80
2022/08/03 21:39:28;;;;;;;10.98;4.35;;;;;;;25.95;36.31;100296.44;10382444;28;20279;-84
2022/08/03 21:44:51;;;;;;;19.98;6.85;;;;;;;25.94;37.13;100303.47;10390550;28;20233;-79
2022/08/03 21:50:14;;;;;;;17.67;7.45;;;;;;;25.86;37.46;100299.09;10381393;28;20201;-80
2022/08/03 21:55:38;;;;;;;14.60;7.43;;;;;;;25.81;37.41;100290.94;10384621;28;20201;-84
2022/08/03 22:01:02;;;;;;;17.65;5.82;;;;;;;25.62;37.94;100300.38;10394650;28;20299;-82
2022/08/03 22:06:26;;;;;;;9.73;5.53;;;;;;;25.65;37.29;100300.28;10392304;28;20629;-85
2022/08/03 22:11:49;;;;;;;12.45;4.60;;;;;;;25.60;37.57;100297.91;10405336;28;20197;-84
2022/08/03 22:17:12;;;;;;;9.15;4.53;;;;;;;25.51;38.26;100293.94;10386722;28;20229;-80
2022/08/03 22:22:36;;;;;;;13.70;4.78;;;;;;;25.53;38.16;100297.22;10401682;28;20240;-85
2022/08/03 22:28:01;;;;;;;9.40;4.03;;;;;;;25.20;38.80;100299.81;10393002;28;20200;-84
2022/08/03 22:33:25;;;;;;;8.10;3.08;;;;;;;25.01;38.94;100295.59;10389894;28;20247;-79
2022/08/03 22:38:50;;;;;;;11.18;3.63;;;;;;;25.29;38.35;100294.34;10401616;28;20874;-86
2022/08/03 22:44:12;;;;;;;7.97;2.83;;;;;;;25.03;39.61;100303.00;10394985;28;20228;-85
2022/08/03 22:49:35;;;;;;;4.75;2.22;;;;;;;24.90;39.85;100302.78;10389650;28;20220;-85
2022/08/03 22:54:58;;;;;;;7.25;2.95;;;;;;;24.99;39.46;100298.09;10383108;28;20220;-85
2022/08/03 23:00:21;;;;;;;12.02;2.83;;;;;;;25.11;39.59;100304.53;10395032;28;20243;-79
2022/08/03 23:05:48;;;;;;;6.28;2.55;;;;;;;24.95;39.91;100296.53;10410905;28;20299;-85
2022/08/03 23:11:11;;;;;;;5.25;2.08;;;;;;;24.91;39.58;100292.88;10400801;28;20252;-83
2022/08/03 23:16:37;;;;;;;4.97;1.85;;;;;;;24.49;41.04;100298.00;10406970;28;20258;-80
2022/08/03 23:22:01;;;;;;;5.00;2.05;;;;;;;24.58;40.91;100301.19;10397720;28;20220;-85
2022/08/03 23:27:26;;;;;;;7.03;2.03;;;;;;;24.39;41.50;100292.38;10396253;28;20201;-86
2022/08/03 23:32:48;;;;;;;6.93;2.08;;;;;;;24.49;40.87;100292.22;10397829;28;20545;-85
2022/08/03 23:38:11;;;;;;;6.40;2.05;;;;;;;24.53;40.85;100293.00;10393072;28;20625;-85
2022/08/03 23:43:39;;;;;;;6.13;2.38;;;;;;;24.32;41.67;100289.59;10406837;28;20216;-79
2022/08/03 23:49:01;;;;;;;6.65;2.20;;;;;;;24.28;41.46;100292.53;10400245;28;20255;-84
2022/08/03 23:54:29;;;;;;;7.72;2.10;;;;;;;24.21;42.05;100289.72;10414040;28;20219;-82
